Time;durP1;ratioP1;P1;durP2;ratioP2;P2;SDS_P1;SDS_P2;PMS_P1;PMS_P2;Temp;Humidity;BMP_temperature;BMP_pressure;BME280_temperature;BME280_humidity;BME280_pressure;Samples;Min_cycle;Max_cycle;Signal;HPM_P1;HPM_P2
2023/06/15 00:02:10;;;;;;;17.83;13.75;;;;;;;;;;5001631;28;20351;-62
2023/06/15 00:04:36;;;;;;;20.42;13.93;;;;;;;;;;5018226;28;20029;-61
2023/06/15 00:07:02;;;;;;;18.45;13.25;;;;;;;;;;5019373;28;20061;-59
2023/06/15 00:09:28;;;;;;;20.90;14.00;;;;;;;;;;5017813;28;20422;-59
2023/06/15 00:11:54;;;;;;;24.55;13.73;;;;;;;;;;5018144;28;20033;-61
2023/06/15 00:14:20;;;;;;;20.02;14.68;;;;;;;;;;5017555;28;20032;-59
2023/06/15 00:16:46;;;;;;;23.13;13.38;;;;;;;;;;5000432;28;20457;-62
2023/06/15 00:19:12;;;;;;;22.25;17.05;;;;;;;;;;5018162;28;20053;-62
2023/06/15 00:21:41;;;;;;;20.88;16.00;;;;;;;;;;5000983;28;20033;-63
2023/06/15 00:24:08;;;;;;;20.88;15.07;;;;;;;;;;5017951;28;20386;-62
2023/06/15 00:26:35;;;;;;;20.15;13.95;;;;;;;;;;5018695;28;20026;-61
2023/06/15 00:29:01;;;;;;;18.23;14.18;;;;;;;;;;5018682;28;20097;-62
2023/06/15 00:31:27;;;;;;;18.75;14.30;;;;;;;;;;5019055;28;20062;-62
2023/06/15 00:33:53;;;;;;;20.10;15.23;;;;;;;;;;5000559;28;20044;-59
2023/06/15 00:36:19;;;;;;;20.08;13.95;;;;;;;;;;5017960;28;20033;-63
2023/06/15 00:38:45;;;;;;;22.15;14.80;;;;;;;;;;5018035;28;20049;-62
2023/06/15 00:41:11;;;;;;;20.25;14.13;;;;;;;;;;5014629;28;20387;-62
2023/06/15 00:43:37;;;;;;;19.35;14.55;;;;;;;;;;5013651;28;20028;-61
2023/06/15 00:46:03;;;;;;;20.30;14.38;;;;;;;;;;5012496;28;20018;-63
2023/06/15 00:48:32;;;;;;;19.70;14.18;;;;;;;;;;5015616;28;20096;-62
2023/06/15 00:50:58;;;;;;;18.27;13.55;;;;;;;;;;5015583;28;20390;-62
2023/06/15 00:53:24;;;;;;;21.55;15.90;;;;;;;;;;5015265;28;20116;-62
2023/06/15 00:55:51;;;;;;;31.23;25.77;;;;;;;;;;5014495;28;20033;-62
2023/06/15 00:58:18;;;;;;;26.30;18.75;;;;;;;;;;5015182;28;20072;-58
2023/06/15 01:00:48;;;;;;;19.00;13.35;;;;;;;;;;5014711;28;20058;-61
2023/06/15 01:03:15;;;;;;;20.08;13.63;;;;;;;;;;5014991;28;20088;-62
2023/06/15 01:05:44;;;;;;;20.88;13.70;;;;;;;;;;5014575;28;20034;-62
2023/06/15 01:08:11;;;;;;;17.98;13.82;;;;;;;;;;5014855;28;20022;-62
2023/06/15 01:10:38;;;;;;;19.00;13.35;;;;;;;;;;5052278;22;20173;-55
2023/06/15 01:13:04;;;;;;;19.75;13.13;;;;;;;;;;5035242;28;20040;-58
2023/06/15 01:15:30;;;;;;;21.77;13.48;;;;;;;;;;5034876;28;20031;-58
2023/06/15 01:17:59;;;;;;;20.27;14.40;;;;;;;;;;5053484;28;20037;-58
2023/06/15 01:20:25;;;;;;;;;;;;;;;;;;5053893;28;20075;-57
2023/06/15 01:23:01;;;;;;;18.98;13.50;;;;;;;;;;5053297;28;20269;-59
2023/06/15 01:25:33;;;;;;;17.83;13.65;;;;;;;;;;5061632;28;20028;-57
2023/06/15 01:28:01;;;;;;;18.55;13.07;;;;;;;;;;5061248;28;20020;-57
2023/06/15 01:30:28;;;;;;;19.20;13.50;;;;;;;;;;5058408;28;20013;-58
2023/06/15 01:32:54;;;;;;;20.27;13.43;;;;;;;;;;5053216;28;20436;-58
2023/06/15 01:35:20;;;;;;;21.38;13.45;;;;;;;;;;5052419;28;20025;-57
2023/06/15 01:37:46;;;;;;;19.05;13.90;;;;;;;;;;5035240;28;20021;-59
2023/06/15 01:40:12;;;;;;;17.70;13.43;;;;;;;;;;5056780;28;20054;-58
2023/06/15 01:42:39;;;;;;;17.67;13.30;;;;;;;;;;5054433;28;20029;-56
2023/06/15 01:45:05;;;;;;;19.15;13.40;;;;;;;;;;5052491;28;20029;-58
2023/06/15 01:47:32;;;;;;;19.25;12.68;;;;;;;;;;5053027;28;20025;-56
2023/06/15 01:49:59;;;;;;;17.45;13.00;;;;;;;;;;5053037;28;20542;-57
2023/06/15 01:52:25;;;;;;;20.05;13.15;;;;;;;;;;5052655;28;20400;-59
2023/06/15 01:54:51;;;;;;;18.25;13.43;;;;;;;;;;5052082;28;20100;-58
2023/06/15 01:57:20;;;;;;;19.75;13.75;;;;;;;;;;5052547;28;20502;-57
2023/06/15 01:59:46;;;;;;;18.88;13.10;;;;;;;;;;5052819;28;20033;-58
2023/06/15 02:02:12;;;;;;;19.10;12.85;;;;;;;;;;5052918;28;20370;-57
2023/06/15 02:04:38;;;;;;;18.35;13.10;;;;;;;;;;5052004;28;20013;-58
2023/06/15 02:07:04;;;;;;;18.67;12.93;;;;;;;;;;5052628;28;20083;-58
2023/06/15 02:09:30;;;;;;;18.85;13.20;;;;;;;;;;5052685;28;20028;-59
2023/06/15 02:11:57;;;;;;;18.50;13.35;;;;;;;;;;5052474;28;20127;-59
2023/06/15 02:14:23;;;;;;;17.35;12.50;;;;;;;;;;5033830;28;20021;-56
2023/06/15 02:16:50;;;;;;;21.52;14.27;;;;;;;;;;5052474;28;20097;-55
2023/06/15 02:19:21;;;;;;;22.02;15.05;;;;;;;;;;5052458;28;20091;-59
2023/06/15 02:21:47;;;;;;;19.65;13.50;;;;;;;;;;5052238;28;20044;-57
2023/06/15 02:24:13;;;;;;;19.42;13.52;;;;;;;;;;5033559;28;20013;-55
2023/06/15 02:26:40;;;;;;;19.48;13.75;;;;;;;;;;5052290;28;20382;-59
2023/06/15 02:29:06;;;;;;;20.17;14.00;;;;;;;;;;5034418;28;20021;-59
2023/06/15 02:31:32;;;;;;;19.38;13.57;;;;;;;;;;5052385;28;20028;-55
2023/06/15 02:33:58;;;;;;;19.52;13.73;;;;;;;;;;5051803;28;20056;-59
2023/06/15 02:36:24;;;;;;;20.30;13.50;;;;;;;;;;5051793;28;20115;-58
2023/06/15 02:38:50;;;;;;;19.52;13.80;;;;;;;;;;5034260;28;20025;-58
2023/06/15 02:41:16;;;;;;;18.83;13.88;;;;;;;;;;5051777;28;20021;-59
2023/06/15 02:43:42;;;;;;;18.40;13.63;;;;;;;;;;5052063;28;20102;-59
2023/06/15 02:46:08;;;;;;;21.08;14.15;;;;;;;;;;5050732;28;20056;-58
2023/06/15 02:48:34;;;;;;;20.88;13.98;;;;;;;;;;5051913;28;20033;-59
2023/06/15 02:51:01;;;;;;;20.73;13.13;;;;;;;;;;5033904;28;20033;-59
2023/06/15 02:53:27;;;;;;;18.98;14.43;;;;;;;;;;5051685;28;20082;-59
2023/06/15 02:55:53;;;;;;;20.08;13.48;;;;;;;;;;5051081;28;20041;-55
2023/06/15 02:58:20;;;;;;;20.73;12.85;;;;;;;;;;5033916;28;20492;-59
2023/06/15 03:00:49;;;;;;;19.75;13.13;;;;;;;;;;5051683;28;20024;-57
2023/06/15 03:03:22;;;;;;;19.48;13.30;;;;;;;;;;5050960;28;20187;-58
2023/06/15 03:05:48;;;;;;;18.02;12.85;;;;;;;;;;5050774;28;20477;-57
2023/06/15 03:08:15;;;;;;;19.67;13.07;;;;;;;;;;5051719;28;20440;-56
2023/06/15 03:10:41;;;;;;;19.35;13.00;;;;;;;;;;5051409;28;20037;-59
2023/06/15 03:13:07;;;;;;;20.23;13.55;;;;;;;;;;5051556;28;20044;-59
2023/06/15 03:15:35;;;;;;;21.52;13.15;;;;;;;;;;5051033;28;20097;-59
2023/06/15 03:18:01;;;;;;;19.63;12.93;;;;;;;;;;5034512;28;20029;-58
2023/06/15 03:20:32;;;;;;;20.33;13.32;;;;;;;;;;5052151;28;20036;-57
2023/06/15 03:22:59;;;;;;;19.27;13.38;;;;;;;;;;5052368;28;20037;-56
2023/06/15 03:25:26;;;;;;;19.85;13.07;;;;;;;;;;5033555;28;20061;-62
2023/06/15 03:27:59;;;;;;;18.55;13.27;;;;;;;;;;5051226;28;20108;-59
2023/06/15 03:30:26;;;;;;;21.17;13.13;;;;;;;;;;5033522;28;20025;-58
2023/06/15 03:32:53;;;;;;;20.65;13.23;;;;;;;;;;5033441;28;20137;-59
2023/06/15 03:35:19;;;;;;;21.42;12.95;;;;;;;;;;5050583;28;20049;-56
2023/06/15 03:37:45;;;;;;;24.70;12.38;;;;;;;;;;5033504;28;20043;-59
2023/06/15 03:40:11;;;;;;;21.30;13.45;;;;;;;;;;5050908;28;20444;-58
2023/06/15 03:42:37;;;;;;;19.33;12.85;;;;;;;;;;5032429;28;20032;-58
2023/06/15 03:45:04;;;;;;;21.13;12.98;;;;;;;;;;5050337;28;20527;-59
2023/06/15 03:47:32;;;;;;;18.38;12.15;;;;;;;;;;5051211;28;20101;-56
2023/06/15 03:49:58;;;;;;;21.17;14.43;;;;;;;;;;5032920;28;20059;-57
2023/06/15 03:52:24;;;;;;;18.48;13.00;;;;;;;;;;5051069;28;20416;-58
2023/06/15 03:54:50;;;;;;;18.40;12.82;;;;;;;;;;5050382;28;20482;-57
2023/06/15 03:57:16;;;;;;;18.52;13.18;;;;;;;;;;5051010;28;20040;-57
2023/06/15 03:59:42;;;;;;;20.15;12.77;;;;;;;;;;5051078;28;20037;-55
2023/06/15 04:02:08;;;;;;;19.52;12.90;;;;;;;;;;5050895;28;20473;-53
2023/06/15 04:04:34;;;;;;;18.70;13.35;;;;;;;;;;5050536;28;20051;-57
2023/06/15 04:07:00;;;;;;;19.98;13.40;;;;;;;;;;5050971;28;20442;-62
2023/06/15 04:09:26;;;;;;;19.58;13.70;;;;;;;;;;5050866;28;20066;-58
2023/06/15 04:11:52;;;;;;;19.55;12.52;;;;;;;;;;5051262;28;20037;-58
2023/06/15 04:14:18;;;;;;;25.45;14.13;;;;;;;;;;5033824;28;20091;-59
2023/06/15 04:16:45;;;;;;;22.52;15.18;;;;;;;;;;5054767;28;20067;-58
2023/06/15 04:19:11;;;;;;;19.20;12.90;;;;;;;;;;5054841;28;20035;-59
2023/06/15 04:21:37;;;;;;;20.92;13.32;;;;;;;;;;5054471;28;20540;-58
2023/06/15 04:24:03;;;;;;;18.88;12.30;;;;;;;;;;5053890;28;20108;-58
2023/06/15 04:26:29;;;;;;;19.30;13.25;;;;;;;;;;5054087;28;20382;-55
2023/06/15 04:28:58;;;;;;;20.85;13.80;;;;;;;;;;5054948;28;20037;-57
2023/06/15 04:31:24;;;;;;;22.83;12.82;;;;;;;;;;5036739;28;20028;-57
2023/06/15 04:33:58;;;;;;;20.17;13.68;;;;;;;;;;5054710;28;20039;-58
2023/06/15 04:36:24;;;;;;;19.95;14.20;;;;;;;;;;5054055;28;20048;-57
2023/06/15 04:38:51;;;;;;;21.83;14.88;;;;;;;;;;5036438;28;20021;-57
2023/06/15 04:41:22;;;;;;;20.25;13.80;;;;;;;;;;5054027;28;20063;-58
2023/06/15 04:43:48;;;;;;;60.17;20.52;;;;;;;;;;5053880;28;20447;-59
2023/06/15 04:46:17;;;;;;;24.48;13.73;;;;;;;;;;5035659;28;20032;-57
2023/06/15 04:48:43;;;;;;;20.88;13.90;;;;;;;;;;5054147;28;20028;-59
2023/06/15 04:51:12;;;;;;;20.90;13.93;;;;;;;;;;5035946;28;20060;-59
2023/06/15 04:53:39;;;;;;;26.80;14.27;;;;;;;;;;5053710;28;20025;-59
2023/06/15 04:56:05;;;;;;;24.30;14.88;;;;;;;;;;5053274;28;20025;-57
2023/06/15 04:58:31;;;;;;;19.38;15.23;;;;;;;;;;5053892;28;20036;-58
2023/06/15 05:00:57;;;;;;;19.60;14.65;;;;;;;;;;5053695;28;20397;-58
2023/06/15 05:03:23;;;;;;;20.75;14.40;;;;;;;;;;5053183;28;20029;-58
2023/06/15 05:05:49;;;;;;;19.55;14.32;;;;;;;;;;5052720;28;20385;-60
2023/06/15 05:08:15;;;;;;;19.60;15.05;;;;;;;;;;5053416;28;20021;-58
2023/06/15 05:10:41;;;;;;;26.10;20.95;;;;;;;;;;5053245;28;20133;-57
2023/06/15 05:13:07;;;;;;;20.20;14.52;;;;;;;;;;5053511;28;20025;-59
2023/06/15 05:15:34;;;;;;;23.65;15.70;;;;;;;;;;5050116;28;20108;-57
2023/06/15 05:18:00;;;;;;;25.73;17.88;;;;;;;;;;5052593;28;20544;-59
2023/06/15 05:20:26;;;;;;;23.70;15.73;;;;;;;;;;5034687;28;20120;-58
2023/06/15 05:22:52;;;;;;;21.77;16.02;;;;;;;;;;5052731;28;20037;-59
2023/06/15 05:25:19;;;;;;;22.25;14.68;;;;;;;;;;5051783;28;20412;-58
2023/06/15 05:27:45;;;;;;;19.85;15.52;;;;;;;;;;5053176;28;20021;-60
2023/06/15 05:30:14;;;;;;;24.58;15.85;;;;;;;;;;5052413;28;20547;-59
2023/06/15 05:32:40;;;;;;;21.50;14.75;;;;;;;;;;5052304;28;20021;-57
2023/06/15 05:35:09;;;;;;;24.70;15.82;;;;;;;;;;5051400;28;20032;-59
2023/06/15 05:37:35;;;;;;;23.35;15.13;;;;;;;;;;5052782;28;20101;-59
2023/06/15 05:40:02;;;;;;;37.30;20.15;;;;;;;;;;5052406;28;20116;-56
2023/06/15 05:42:28;;;;;;;24.67;15.05;;;;;;;;;;5052178;28;20032;-57
2023/06/15 05:44:54;;;;;;;24.05;15.18;;;;;;;;;;5051661;28;20104;-59
2023/06/15 05:47:20;;;;;;;20.10;15.15;;;;;;;;;;5034125;28;20055;-60
2023/06/15 05:49:46;;;;;;;22.60;15.80;;;;;;;;;;5052064;28;20028;-59
2023/06/15 05:52:14;;;;;;;23.40;14.38;;;;;;;;;;5052342;28;20112;-64
2023/06/15 05:54:40;;;;;;;20.90;15.43;;;;;;;;;;5033713;28;20029;-57
2023/06/15 05:57:06;;;;;;;20.40;14.60;;;;;;;;;;5052006;28;20021;-55
2023/06/15 05:59:32;;;;;;;19.30;14.65;;;;;;;;;;5051859;28;20032;-59
2023/06/15 06:01:58;;;;;;;22.35;14.40;;;;;;;;;;5051570;28;20017;-59
2023/06/15 06:04:24;;;;;;;19.75;14.00;;;;;;;;;;5055570;28;20095;-59
2023/06/15 06:06:50;;;;;;;23.52;17.90;;;;;;;;;;5047260;28;20107;-59
2023/06/15 06:09:18;;;;;;;22.95;16.00;;;;;;;;;;5055612;28;20020;-59
2023/06/15 06:11:47;;;;;;;24.10;17.30;;;;;;;;;;5051514;28;20558;-57
2023/06/15 06:14:13;;;;;;;24.90;18.50;;;;;;;;;;5058022;28;20107;-59
2023/06/15 06:16:39;;;;;;;22.77;15.35;;;;;;;;;;5051044;28;20021;-59
2023/06/15 06:19:05;;;;;;;19.25;15.48;;;;;;;;;;5051568;28;20108;-59
2023/06/15 06:21:32;;;;;;;19.55;15.38;;;;;;;;;;5051470;28;20033;-59
2023/06/15 06:23:58;;;;;;;24.35;16.10;;;;;;;;;;5050919;28;20060;-59
2023/06/15 06:26:24;;;;;;;23.33;17.42;;;;;;;;;;5051037;28;20456;-58
2023/06/15 06:28:50;;;;;;;28.02;16.00;;;;;;;;;;5051330;28;20040;-58
2023/06/15 06:31:16;;;;;;;20.58;15.45;;;;;;;;;;5051438;28;20423;-59
2023/06/15 06:33:42;;;;;;;21.85;15.15;;;;;;;;;;5051443;28;20100;-58
2023/06/15 06:36:08;;;;;;;23.98;16.50;;;;;;;;;;5050801;28;20024;-59
2023/06/15 06:38:34;;;;;;;19.75;15.40;;;;;;;;;;5032516;28;20028;-57
2023/06/15 06:41:00;;;;;;;23.45;15.57;;;;;;;;;;5051317;28;20135;-59
2023/06/15 06:43:26;;;;;;;20.58;15.38;;;;;;;;;;5050846;28;20056;-55
2023/06/15 06:45:52;;;;;;;25.83;15.70;;;;;;;;;;5050588;28;20060;-58
2023/06/15 06:48:18;;;;;;;21.23;15.27;;;;;;;;;;5051363;28;20021;-59
2023/06/15 06:50:45;;;;;;;29.13;18.27;;;;;;;;;;5050910;28;20412;-58
2023/06/15 06:53:11;;;;;;;27.15;16.75;;;;;;;;;;5051300;28;20100;-59
2023/06/15 06:55:37;;;;;;;21.70;16.05;;;;;;;;;;5032170;28;20032;-57
2023/06/15 06:58:03;;;;;;;27.98;16.15;;;;;;;;;;5050169;28;20098;-57
2023/06/15 07:00:29;;;;;;;28.63;16.75;;;;;;;;;;5051037;28;20090;-55
2023/06/15 07:02:55;;;;;;;20.77;15.18;;;;;;;;;;5051025;28;20028;-55
2023/06/15 07:05:21;;;;;;;21.23;15.73;;;;;;;;;;5032476;28;20116;-57
2023/06/15 07:07:47;;;;;;;20.20;15.38;;;;;;;;;;5050926;28;20025;-58
2023/06/15 07:12:44;;;;;;;21.95;16.10;;;;;;;;;;5029776;28;20470;-59
2023/06/15 07:15:10;;;;;;;19.88;15.45;;;;;;;;;;5030534;28;20026;-59
2023/06/15 07:17:36;;;;;;;22.20;15.10;;;;;;;;;;5013347;28;20022;-59
2023/06/15 07:20:02;;;;;;;20.58;15.02;;;;;;;;;;5013597;28;20079;-61
2023/06/15 07:22:28;;;;;;;19.90;14.70;;;;;;;;;;5013387;28;20033;-60
2023/06/15 07:24:54;;;;;;;20.48;14.48;;;;;;;;;;5010413;28;20017;-55
2023/06/15 07:27:21;;;;;;;22.20;15.73;;;;;;;;;;5030945;28;20089;-61
2023/06/15 07:29:48;;;;;;;24.02;17.13;;;;;;;;;;5031186;28;20018;-62
2023/06/15 07:32:14;;;;;;;23.08;14.95;;;;;;;;;;5030740;28;20547;-63
2023/06/15 07:34:40;;;;;;;20.90;14.80;;;;;;;;;;5028628;28;20029;-60
2023/06/15 07:37:07;;;;;;;21.90;15.25;;;;;;;;;;5031207;28;20018;-55
2023/06/15 07:39:34;;;;;;;20.55;15.35;;;;;;;;;;5031119;28;20029;-58
2023/06/15 07:42:00;;;;;;;22.50;16.38;;;;;;;;;;5013108;28;20040;-61
2023/06/15 07:44:26;;;;;;;20.23;16.10;;;;;;;;;;5030497;28;20025;-60
2023/06/15 07:46:52;;;;;;;20.00;15.13;;;;;;;;;;5013334;28;20026;-58
2023/06/15 07:49:18;;;;;;;22.67;16.20;;;;;;;;;;5032643;28;20029;-56
2023/06/15 07:51:45;;;;;;;21.20;14.73;;;;;;;;;;5034576;28;20103;-60
2023/06/15 07:54:11;;;;;;;21.45;16.05;;;;;;;;;;5034294;28;20056;-57
2023/06/15 07:56:37;;;;;;;23.65;15.32;;;;;;;;;;5034781;28;20030;-62
2023/06/15 07:59:03;;;;;;;23.05;14.90;;;;;;;;;;5034957;28;20057;-59
2023/06/15 08:01:29;;;;;;;19.80;14.90;;;;;;;;;;5034792;28;20439;-64
2023/06/15 08:03:55;;;;;;;20.35;14.10;;;;;;;;;;5035218;28;20112;-58
2023/06/15 08:06:21;;;;;;;20.63;14.77;;;;;;;;;;5035351;28;20057;-53
2023/06/15 08:08:47;;;;;;;18.15;14.30;;;;;;;;;;5020598;28;20100;-53
2023/06/15 08:11:16;;;;;;;21.00;14.32;;;;;;;;;;5015044;28;20030;-53
2023/06/15 08:13:42;;;;;;;24.00;14.57;;;;;;;;;;5027823;28;20022;-54
2023/06/15 08:16:08;;;;;;;23.23;17.67;;;;;;;;;;5033748;28;20029;-55
2023/06/15 08:18:34;;;;;;;21.98;15.55;;;;;;;;;;5034197;28;20026;-51
2023/06/15 08:21:00;;;;;;;21.02;15.20;;;;;;;;;;5034497;28;20025;-52
2023/06/15 08:23:27;;;;;;;20.50;14.93;;;;;;;;;;5034393;28;20396;-55
2023/06/15 08:25:53;;;;;;;20.13;14.77;;;;;;;;;;5029621;28;20022;-52
2023/06/15 08:28:19;;;;;;;23.05;14.52;;;;;;;;;;5028459;28;20437;-54
2023/06/15 08:30:45;;;;;;;19.48;14.75;;;;;;;;;;5016399;28;20112;-55
2023/06/15 08:33:11;;;;;;;20.30;14.48;;;;;;;;;;5034084;28;20096;-57
2023/06/15 08:35:37;;;;;;;21.17;14.45;;;;;;;;;;5032871;28;20079;-53
2023/06/15 08:38:03;;;;;;;20.40;14.85;;;;;;;;;;5032744;28;20342;-53
2023/06/15 08:40:29;;;;;;;20.15;14.40;;;;;;;;;;5033558;28;20025;-53
2023/06/15 08:42:57;;;;;;;20.05;13.98;;;;;;;;;;5034061;28;20084;-51
2023/06/15 08:45:24;;;;;;;20.77;14.60;;;;;;;;;;5016525;28;20484;-55
2023/06/15 08:47:53;;;;;;;19.23;14.68;;;;;;;;;;5032998;28;20505;-56
2023/06/15 08:50:19;;;;;;;24.05;14.95;;;;;;;;;;5016219;28;20069;-54
2023/06/15 08:52:46;;;;;;;18.85;14.90;;;;;;;;;;5033896;28;20165;-57
2023/06/15 08:55:15;;;;;;;18.80;14.43;;;;;;;;;;5015374;28;20499;-53
2023/06/15 08:57:42;;;;;;;19.85;15.48;;;;;;;;;;5015976;28;20437;-54
2023/06/15 09:00:09;;;;;;;20.92;15.35;;;;;;;;;;5032929;28;20436;-50
2023/06/15 09:02:38;;;;;;;20.52;15.23;;;;;;;;;;5033005;28;20132;-52
2023/06/15 09:05:04;;;;;;;19.58;14.18;;;;;;;;;;5032700;28;20030;-55
2023/06/15 09:07:30;;;;;;;21.92;15.50;;;;;;;;;;5015559;28;20120;-54
2023/06/15 09:10:15;;;;;;;18.65;15.10;;;;;;;;;;5033816;28;20052;-50
2023/06/15 09:12:48;;;;;;;21.50;14.80;;;;;;;;;;5033720;28;20389;-56
2023/06/15 09:15:18;;;;;;;18.75;14.57;;;;;;;;;;5032601;28;20083;-54
2023/06/15 09:17:44;;;;;;;20.30;15.25;;;;;;;;;;5033213;28;20140;-53
2023/06/15 09:20:11;;;;;;;20.60;14.80;;;;;;;;;;5032720;28;20032;-52
2023/06/15 09:22:42;;;;;;;18.92;14.88;;;;;;;;;;5015356;28;20055;-52
2023/06/15 09:25:14;;;;;;;19.30;15.27;;;;;;;;;;5032660;28;20382;-56
2023/06/15 09:27:40;;;;;;;20.25;14.45;;;;;;;;;;5033168;28;20032;-52
2023/06/15 09:30:07;;;;;;;19.65;15.10;;;;;;;;;;5033228;28;20481;-53
2023/06/15 09:32:32;;;;;;;20.10;15.40;;;;;;;;;;5033158;28;20021;-56
2023/06/15 09:34:59;;;;;;;18.55;14.80;;;;;;;;;;5032109;28;20029;-55
2023/06/15 09:37:26;;;;;;;21.02;14.93;;;;;;;;;;5015409;28;20030;-55
2023/06/15 09:39:52;;;;;;;18.98;15.18;;;;;;;;;;5029330;28;20493;-48
2023/06/15 09:42:18;;;;;;;19.63;15.00;;;;;;;;;;5024015;28;20033;-64
2023/06/15 09:44:44;;;;;;;19.40;15.43;;;;;;;;;;5029135;28;20037;-61
2023/06/15 09:47:17;;;;;;;17.08;14.38;;;;;;;;;;5014389;28;20476;-62
2023/06/15 09:49:44;;;;;;;20.73;14.77;;;;;;;;;;5026520;28;20030;-61
2023/06/15 09:52:13;;;;;;;18.88;15.23;;;;;;;;;;5032377;28;20049;-61
2023/06/15 09:54:40;;;;;;;18.63;15.70;;;;;;;;;;5031621;28;20071;-62
2023/06/15 09:57:06;;;;;;;20.85;15.88;;;;;;;;;;5028160;28;20347;-61
2023/06/15 09:59:32;;;;;;;18.23;15.57;;;;;;;;;;5025618;28;20505;-62
2023/06/15 10:02:00;;;;;;;17.85;15.05;;;;;;;;;;5032341;28;20459;-64
2023/06/15 10:04:29;;;;;;;19.85;15.80;;;;;;;;;;5031954;28;20040;-61
2023/06/15 10:07:01;;;;;;;18.02;14.90;;;;;;;;;;5032669;28;20393;-60
2023/06/15 10:09:29;;;;;;;20.50;14.43;;;;;;;;;;5028793;28;20089;-61
2023/06/15 10:12:01;;;;;;;19.43;15.23;;;;;;;;;;5032210;28;20045;-63
2023/06/15 10:14:33;;;;;;;18.45;14.57;;;;;;;;;;5031947;28;20025;-61
2023/06/15 10:17:04;;;;;;;19.27;14.40;;;;;;;;;;5032426;28;20041;-64
2023/06/15 10:19:32;;;;;;;19.73;15.00;;;;;;;;;;5029392;28;20495;-61
2023/06/15 10:21:59;;;;;;;18.95;14.52;;;;;;;;;;5014091;28;20029;-62
2023/06/15 10:24:25;;;;;;;17.90;14.20;;;;;;;;;;5031558;28;20033;-62
2023/06/15 10:26:51;;;;;;;17.73;14.25;;;;;;;;;;5032177;28;20017;-61
2023/06/15 10:29:39;;;;;;;20.05;13.90;;;;;;;;;;5032014;28;20052;-63
2023/06/15 10:32:44;;;;;;;17.92;14.20;;;;;;;;;;5031839;28;20022;-62
2023/06/15 10:35:13;;;;;;;17.67;14.60;;;;;;;;;;4949058;29;20031;-60
2023/06/15 10:37:57;;;;;;;18.65;15.70;;;;;;;;;;4952333;28;20034;-62
2023/06/15 10:40:23;;;;;;;18.95;14.20;;;;;;;;;;5001494;28;20400;-62
2023/06/15 10:42:49;;;;;;;19.70;15.00;;;;;;;;;;5029746;28;20040;-63
2023/06/15 10:45:28;;;;;;;18.75;13.80;;;;;;;;;;5030663;28;20394;-63
2023/06/15 10:47:56;;;;;;;16.65;13.35;;;;;;;;;;5013856;28;20112;-62
2023/06/15 10:50:22;;;;;;;22.45;14.32;;;;;;;;;;5031941;28;20022;-62
2023/06/15 10:52:48;;;;;;;18.25;14.07;;;;;;;;;;5027157;28;20115;-64
2023/06/15 10:55:14;;;;;;;17.42;14.07;;;;;;;;;;5023925;28;20053;-59
2023/06/15 10:57:40;;;;;;;20.40;14.40;;;;;;;;;;5028402;28;20036;-62
2023/06/15 11:00:08;;;;;;;19.50;14.65;;;;;;;;;;5050712;28;20017;-62
2023/06/15 11:02:34;;;;;;;19.13;14.50;;;;;;;;;;5031214;28;20104;-59
2023/06/15 11:05:01;;;;;;;18.88;14.30;;;;;;;;;;5030801;28;20120;-62
2023/06/15 11:07:28;;;;;;;18.93;13.87;;;;;;;;;;5031727;28;20022;-62
2023/06/15 11:09:56;;;;;;;18.98;14.57;;;;;;;;;;5014065;28;20021;-60
2023/06/15 11:12:39;;;;;;;18.30;13.70;;;;;;;;;;5014092;28;20049;-54
2023/06/15 11:15:05;;;;;;;17.77;13.85;;;;;;;;;;5032752;28;20048;-57
2023/06/15 11:17:52;;;;;;;21.95;14.65;;;;;;;;;;5031312;28;20017;-57
2023/06/15 11:20:37;;;;;;;20.27;14.45;;;;;;;;;;5032169;28;20072;-51
2023/06/15 11:23:04;;;;;;;18.10;13.93;;;;;;;;;;5013525;28;20397;-55
2023/06/15 11:25:30;;;;;;;18.67;14.48;;;;;;;;;;5006909;28;20076;-58
2023/06/15 11:27:57;;;;;;;21.98;14.77;;;;;;;;;;5023583;28;20095;-54
2023/06/15 11:30:23;;;;;;;17.73;14.18;;;;;;;;;;5022939;28;20053;-56
2023/06/15 11:32:49;;;;;;;17.77;14.13;;;;;;;;;;5021234;28;20025;-56
2023/06/15 11:35:15;;;;;;;17.90;14.75;;;;;;;;;;5021740;28;20104;-59
2023/06/15 11:37:41;;;;;;;17.00;14.00;;;;;;;;;;5001151;28;20028;-55
2023/06/15 11:40:08;;;;;;;19.27;14.65;;;;;;;;;;5019412;28;20032;-55
2023/06/15 11:42:34;;;;;;;19.92;14.95;;;;;;;;;;5011554;28;20030;-54
2023/06/15 11:45:01;;;;;;;21.40;15.82;;;;;;;;;;4993309;28;20026;-54
2023/06/15 11:47:27;;;;;;;20.45;15.52;;;;;;;;;;5011520;28;20387;-57
2023/06/15 11:49:53;;;;;;;19.20;15.68;;;;;;;;;;5011214;28;20061;-57
2023/06/15 11:52:19;;;;;;;20.25;15.13;;;;;;;;;;4994107;28;20112;-55
2023/06/15 11:54:45;;;;;;;18.50;15.75;;;;;;;;;;5010987;28;20026;-59
2023/06/15 11:57:11;;;;;;;18.50;16.02;;;;;;;;;;5011139;28;20053;-56
2023/06/15 11:59:38;;;;;;;19.45;15.13;;;;;;;;;;4994084;28;20441;-59
2023/06/15 12:02:05;;;;;;;18.70;15.07;;;;;;;;;;4994382;28;20053;-55
2023/06/15 12:04:31;;;;;;;21.48;15.13;;;;;;;;;;5010469;28;20101;-54
2023/06/15 12:06:59;;;;;;;19.42;15.25;;;;;;;;;;5011899;28;20362;-57
2023/06/15 12:09:25;;;;;;;18.80;14.95;;;;;;;;;;4994057;28;20018;-58
2023/06/15 12:11:51;;;;;;;19.65;15.82;;;;;;;;;;5018116;28;20025;-57
2023/06/15 12:14:20;;;;;;;19.38;15.32;;;;;;;;;;5030354;28;20090;-56
2023/06/15 12:16:50;;;;;;;19.75;15.13;;;;;;;;;;5030989;28;20037;-54
2023/06/15 12:19:16;;;;;;;20.45;15.75;;;;;;;;;;5023804;28;20504;-55
2023/06/15 12:21:43;;;;;;;19.90;15.43;;;;;;;;;;5029889;28;20026;-58
2023/06/15 12:24:13;;;;;;;16.85;15.05;;;;;;;;;;5030164;28;20025;-59
2023/06/15 12:26:40;;;;;;;18.55;15.23;;;;;;;;;;5030742;28;20025;-56
2023/06/15 12:29:15;;;;;;;20.48;15.77;;;;;;;;;;5027958;28;20026;-57
2023/06/15 12:31:41;;;;;;;18.13;15.43;;;;;;;;;;5010842;28;20065;-57
2023/06/15 12:34:08;;;;;;;21.35;15.75;;;;;;;;;;5019989;28;20036;-60
2023/06/15 12:36:35;;;;;;;22.80;15.83;;;;;;;;;;5033352;28;20039;-57
2023/06/15 12:39:04;;;;;;;18.67;16.20;;;;;;;;;;5034553;28;20342;-58
2023/06/15 12:41:30;;;;;;;19.98;16.65;;;;;;;;;;5034389;28;20026;-56
2023/06/15 12:43:56;;;;;;;20.33;15.90;;;;;;;;;;5015480;28;20084;-56
2023/06/15 12:46:22;;;;;;;19.23;15.23;;;;;;;;;;5034957;28;20029;-57
2023/06/15 12:48:48;;;;;;;20.40;15.50;;;;;;;;;;5036551;28;20068;-57
2023/06/15 12:51:14;;;;;;;17.55;15.20;;;;;;;;;;5033982;28;20029;-56
2023/06/15 12:53:40;;;;;;;17.73;15.00;;;;;;;;;;5034200;28;20036;-56
2023/06/15 12:56:06;;;;;;;17.40;14.90;;;;;;;;;;5033907;28;20522;-59
2023/06/15 12:58:32;;;;;;;18.88;15.50;;;;;;;;;;5016988;28;20461;-55
2023/06/15 13:00:58;;;;;;;20.73;15.48;;;;;;;;;;5036157;28;20629;-58
2023/06/15 13:03:24;;;;;;;18.95;15.60;;;;;;;;;;5034008;28;20029;-51
2023/06/15 13:05:50;;;;;;;17.30;15.35;;;;;;;;;;5015090;28;20021;-54
2023/06/15 13:08:16;;;;;;;17.48;15.55;;;;;;;;;;5015141;28;20025;-57
2023/06/15 13:13:23;;;;;;;18.98;15.27;;;;;;;;;;5031961;28;20079;-60
2023/06/15 13:15:49;;;;;;;19.70;15.80;;;;;;;;;;5032445;28;20033;-61
2023/06/15 13:18:16;;;;;;;19.23;15.68;;;;;;;;;;5015398;28;20375;-61
2023/06/15 13:20:42;;;;;;;18.73;15.65;;;;;;;;;;5033210;28;20029;-60
2023/06/15 13:23:08;;;;;;;21.60;15.60;;;;;;;;;;5015463;28;20041;-61
2023/06/15 13:25:34;;;;;;;19.48;16.17;;;;;;;;;;5032403;28;20553;-60
2023/06/15 13:28:00;;;;;;;19.63;16.17;;;;;;;;;;5015157;28;20116;-60
2023/06/15 13:30:26;;;;;;;20.95;15.30;;;;;;;;;;5032860;28;20021;-61
2023/06/15 13:32:52;;;;;;;17.83;15.70;;;;;;;;;;5033004;28;20074;-60
2023/06/15 13:35:18;;;;;;;18.52;15.45;;;;;;;;;;5032728;28;20025;-59
2023/06/15 13:37:44;;;;;;;18.67;15.45;;;;;;;;;;5033221;28;20041;-60
2023/06/15 13:40:10;;;;;;;17.95;15.23;;;;;;;;;;5032770;28;20060;-59
2023/06/15 13:42:38;;;;;;;18.95;14.90;;;;;;;;;;5032494;28;20083;-61
2023/06/15 13:45:05;;;;;;;18.17;16.13;;;;;;;;;;5032060;28;20045;-59
2023/06/15 13:47:31;;;;;;;19.02;15.25;;;;;;;;;;5014578;28;20029;-60
2023/06/15 13:49:57;;;;;;;17.90;15.25;;;;;;;;;;5032476;28;20029;-61
2023/06/15 13:52:23;;;;;;;20.55;15.95;;;;;;;;;;5014550;28;20022;-60
2023/06/15 13:54:50;;;;;;;17.48;15.27;;;;;;;;;;5014140;28;20507;-61
2023/06/15 13:57:16;;;;;;;17.83;15.85;;;;;;;;;;5032464;28;20061;-61
2023/06/15 13:59:42;;;;;;;20.30;16.58;;;;;;;;;;5032064;28;20028;-61
2023/06/15 14:02:08;;;;;;;18.67;15.52;;;;;;;;;;5014058;28;20091;-62
2023/06/15 14:04:37;;;;;;;20.27;15.73;;;;;;;;;;5013639;28;20025;-60
2023/06/15 14:07:03;;;;;;;20.98;16.00;;;;;;;;;;5031988;28;20017;-61
2023/06/15 14:09:29;;;;;;;19.00;16.23;;;;;;;;;;5031603;28;20440;-58
2023/06/15 14:11:58;;;;;;;18.25;15.88;;;;;;;;;;5013606;28;20028;-59
2023/06/15 14:14:27;;;;;;;18.23;14.98;;;;;;;;;;5031076;28;20202;-61
2023/06/15 14:16:54;;;;;;;19.92;15.10;;;;;;;;;;5023850;28;20381;-59
2023/06/15 14:19:21;;;;;;;18.88;14.77;;;;;;;;;;5031603;28;20043;-59
2023/06/15 14:21:47;;;;;;;19.23;15.53;;;;;;;;;;5031514;28;20462;-60
2023/06/15 14:24:13;;;;;;;18.13;14.55;;;;;;;;;;5030381;28;20017;-57